Atascosa, Texas
Current Conditions -  °F | °C
As of 7:15 AM on Thursday 27 Nov 2014 (Local Time) from KCVB Reporting Station
Clear Clear  
Wind Chill: 44°   Ceiling: Unl
Heat Index: 48°   Visibility: 10mi
Dew Point: 34°   Wind: 10mph
Humidity: 57%   Direction: 70°ENE
Pressure: 30.46"   Gusts: NA
Location:  29.28°N, 98.74°W
Report Text: KCVB 271315Z AUTO 07009KT 10SM CLR 09/01 A3046 RMK AO2 T00900010
Loading
Personal Weather Stations






























Interactive Weather Map New forecast layout! Learn more

10-Day Weather Forecast

Advertisements
Track Severe Weather on mobile